Time;durP1;ratioP1;P1;durP2;ratioP2;P2;SDS_P1;SDS_P2;PMS_P1;PMS_P2;Temp;Humidity;BMP_temperature;BMP_pressure;BME280_temperature;BME280_humidity;BME280_pressure;Samples;Min_cycle;Max_cycle;Signal;HPM_P1;HPM_P2
2022/10/10 00:01:52;;;;;;;12.93;8.35;;;;;;;12.46;69.70;100803.09;5106772;28;20032;-26
2022/10/10 00:04:17;;;;;;;12.07;8.52;;;;;;;12.38;70.05;100796.16;5106910;28;20020;-29
2022/10/10 00:06:42;;;;;;;15.73;9.15;;;;;;;12.39;69.78;100784.41;5107230;28;20031;-27
2022/10/10 00:09:08;;;;;;;15.38;8.88;;;;;;;12.38;68.84;100780.13;5107185;28;20122;-28
2022/10/10 00:11:34;;;;;;;11.77;7.95;;;;;;;12.53;68.53;100803.09;5106606;28;20028;-27
2022/10/10 00:14:00;;;;;;;11.13;7.65;;;;;;;12.38;69.81;100814.88;5106951;28;20030;-28
2022/10/10 00:16:25;;;;;;;16.00;8.55;;;;;;;12.32;69.96;100794.34;5106890;28;20398;-31
2022/10/10 00:18:51;;;;;;;12.68;8.68;;;;;;;12.35;69.85;100815.28;5106574;28;20020;-27
2022/10/10 00:21:17;;;;;;;13.75;8.55;;;;;;;11.84;71.65;100813.38;5106798;28;20035;-33
2022/10/10 00:23:42;;;;;;;13.00;8.07;;;;;;;11.38;74.02;100808.88;5088342;28;20503;-27
2022/10/10 00:26:08;;;;;;;11.63;8.00;;;;;;;11.79;72.69;100821.16;5106916;28;20023;-27
2022/10/10 00:28:37;;;;;;;11.38;8.52;;;;;;;12.17;71.09;100817.84;5106885;28;20036;-29
2022/10/10 00:31:03;;;;;;;11.35;8.73;;;;;;;11.60;73.56;100823.66;5106865;28;20094;-28
2022/10/10 00:33:28;;;;;;;12.75;8.50;;;;;;;11.41;74.18;100817.31;5106297;28;20032;-28
2022/10/10 00:35:54;;;;;;;12.13;8.07;;;;;;;11.40;73.70;100801.47;5106780;28;20020;-28
2022/10/10 00:38:19;;;;;;;15.30;8.98;;;;;;;11.90;72.03;100812.56;5106760;28;20056;-28
2022/10/10 00:40:48;;;;;;;14.63;8.68;;;;;;;11.64;73.81;100829.41;5106749;28;20074;-27
2022/10/10 00:43:15;;;;;;;16.88;9.77;;;;;;;11.86;72.23;100822.00;5106683;28;20506;-31
2022/10/10 00:45:43;;;;;;;12.02;8.75;;;;;;;11.98;71.95;100823.03;5106429;28;20788;-29
2022/10/10 00:48:14;;;;;;;;;;;;;;;11.65;73.77;100837.25;5088499;28;20460;-29
2022/10/10 00:50:54;;;;;;;12.25;8.48;;;;;;;11.85;73.08;100839.06;5108250;28;20531;-28
2022/10/10 00:53:24;;;;;;;12.82;8.82;;;;;;;11.92;71.90;100831.88;5092097;28;20032;-28
2022/10/10 00:55:51;;;;;;;11.57;8.68;;;;;;;11.71;72.51;100827.56;5110044;28;20031;-27
2022/10/10 00:58:17;;;;;;;14.45;8.48;;;;;;;11.54;72.55;100813.81;5110007;28;20115;-29
2022/10/10 01:00:43;;;;;;;11.30;8.95;;;;;;;11.55;73.46;100842.19;5091911;28;20080;-27
2022/10/10 01:03:08;;;;;;;12.82;8.63;;;;;;;11.46;74.33;100843.41;5110099;28;20031;-29
2022/10/10 01:05:34;;;;;;;11.60;9.13;;;;;;;11.37;74.70;100833.97;5109854;28;20479;-28
2022/10/10 01:08:02;;;;;;;13.43;9.48;;;;;;;11.45;73.69;100828.41;5110016;28;20031;-31
2022/10/10 01:10:28;;;;;;;14.15;9.10;;;;;;;11.41;73.95;100852.03;5110099;28;20147;-28
2022/10/10 01:13:13;;;;;;;14.68;9.20;;;;;;;11.36;73.96;100848.31;5109961;28;20155;-29
2022/10/10 01:15:42;;;;;;;11.38;8.65;;;;;;;11.21;74.77;100849.34;5091327;28;20031;-29
2022/10/10 01:18:39;;;;;;;14.57;8.10;;;;;;;11.17;74.58;100856.13;5110020;28;20384;-28
2022/10/10 01:21:19;;;;;;;12.07;8.75;;;;;;;11.18;75.29;100855.09;5036085;28;20122;-29
2022/10/10 01:24:19;;;;;;;15.77;8.95;;;;;;;11.24;74.72;100838.28;5091255;28;20044;-28
2022/10/10 01:26:44;;;;;;;11.82;8.80;;;;;;;11.42;74.39;100853.69;5110235;28;20380;-30
2022/10/10 01:29:27;;;;;;;12.05;8.30;;;;;;;11.22;74.05;100842.19;5109935;28;20050;-28
2022/10/10 01:31:55;;;;;;;12.93;8.30;;;;;;;11.24;74.65;100861.47;5109338;28;20453;-29
2022/10/10 01:34:44;;;;;;;;;;;;;;;11.46;74.59;100854.91;5109957;28;20047;-26
2022/10/10 01:37:18;;;;;;;13.18;8.73;;;;;;;11.53;73.49;100833.53;5109436;28;20237;-28
2022/10/10 01:40:24;;;;;;;12.32;8.25;;;;;;;11.57;74.00;100855.34;5109105;28;20028;-29
2022/10/10 01:42:53;;;;;;;14.80;8.65;;;;;;;11.61;73.66;100868.06;5098048;28;20043;-26
2022/10/10 01:45:19;;;;;;;15.57;8.32;;;;;;;11.59;73.53;100864.78;5109482;28;20032;-27
2022/10/10 01:47:46;;;;;;;13.20;8.88;;;;;;;11.49;73.58;100835.00;5090496;28;20042;-28
2022/10/10 01:50:17;;;;;;;12.52;8.18;;;;;;;11.61;73.71;100872.59;5109298;28;20056;-27
2022/10/10 01:53:17;;;;;;;16.38;8.95;;;;;;;11.71;73.18;100842.75;5109314;28;20513;-31
2022/10/10 01:56:07;;;;;;;12.20;8.27;;;;;;;11.87;72.09;100861.06;5109520;28;20186;-29
2022/10/10 01:58:47;;;;;;;12.15;8.50;;;;;;;11.66;72.87;100865.59;5109151;28;20034;-33
2022/10/10 02:01:20;;;;;;;11.20;8.30;;;;;;;11.94;71.88;100871.78;5108887;28;20122;-29
2022/10/10 02:03:53;;;;;;;11.43;8.90;;;;;;;12.15;71.13;100876.06;5109079;28;20031;-28
2022/10/10 02:06:27;;;;;;;13.40;8.82;;;;;;;12.01;70.70;100860.06;5108823;28;20023;-27
2022/10/10 02:09:04;;;;;;;15.27;10.00;;;;;;;11.89;71.13;100877.75;5091451;28;20040;-27
2022/10/10 02:11:34;;;;;;;11.23;8.70;;;;;;;11.72;71.92;100860.47;5107374;28;20027;-28
2022/10/10 02:14:22;;;;;;;12.38;8.60;;;;;;;12.02;71.43;100880.38;5108821;28;20028;-27
2022/10/10 02:16:52;;;;;;;12.43;8.55;;;;;;;11.11;74.57;100859.59;5108731;28;20041;-29
2022/10/10 02:19:20;;;;;;;14.18;9.00;;;;;;;11.60;73.72;100881.63;5108517;28;20073;-27
2022/10/10 02:21:47;;;;;;;13.85;8.88;;;;;;;11.25;74.31;100858.59;5089480;28;20126;-27
2022/10/10 02:24:14;;;;;;;10.88;8.38;;;;;;;10.83;76.68;100887.25;5108601;28;20036;-28
2022/10/10 02:26:43;;;;;;;11.45;8.48;;;;;;;11.21;74.78;100868.03;5089941;28;20024;-27
2022/10/10 02:29:17;;;;;;;12.75;8.63;;;;;;;11.12;74.71;100890.63;5108652;28;20506;-29
2022/10/10 02:31:45;;;;;;;14.20;8.88;;;;;;;10.49;77.20;100900.66;5108040;28;20039;-28
2022/10/10 02:34:15;;;;;;;;;;;;;;;11.03;75.04;100907.81;5108693;28;20035;-29
2022/10/10 02:36:46;;;;;;;13.88;8.95;;;;;;;10.96;74.27;100913.16;5107930;28;19970;-28
2022/10/10 02:39:13;;;;;;;12.40;8.77;;;;;;;10.82;75.79;100917.63;5108439;28;20055;-29
2022/10/10 02:41:43;;;;;;;14.07;9.63;;;;;;;10.65;76.70;100903.81;5108050;28;20027;-30
2022/10/10 02:44:10;;;;;;;13.07;8.68;;;;;;;10.37;77.67;100913.72;5108294;28;20031;-32
2022/10/10 02:46:35;;;;;;;14.23;9.90;;;;;;;10.43;77.53;100912.94;5108026;28;20023;-27
2022/10/10 02:49:01;;;;;;;14.85;10.20;;;;;;;10.48;77.66;100907.00;5108077;28;20040;-28
2022/10/10 02:51:27;;;;;;;14.30;10.40;;;;;;;10.57;77.59;100927.16;5108229;28;20422;-30
2022/10/10 02:53:52;;;;;;;14.45;10.90;;;;;;;10.68;77.82;100920.44;5107891;28;20055;-28
2022/10/10 02:56:18;;;;;;;14.38;10.27;;;;;;;10.70;77.09;100913.06;5108037;28;20031;-27
2022/10/10 02:58:43;;;;;;;15.05;10.25;;;;;;;10.88;76.98;100918.66;5107809;28;20023;-30
2022/10/10 03:01:09;;;;;;;14.10;9.88;;;;;;;10.67;78.29;100922.28;5088952;28;20464;-28
2022/10/10 03:03:35;;;;;;;15.40;10.98;;;;;;;11.08;77.05;100921.41;5107608;28;20110;-26
2022/10/10 03:06:01;;;;;;;13.10;10.00;;;;;;;11.04;76.75;100899.63;5089680;28;20027;-28
2022/10/10 03:08:27;;;;;;;13.57;10.23;;;;;;;11.27;75.96;100895.78;5089143;28;20024;-29
2022/10/10 03:10:54;;;;;;;14.45;9.95;;;;;;;11.05;78.16;100921.78;5107847;28;20084;-29
2022/10/10 03:13:20;;;;;;;12.88;9.85;;;;;;;10.80;79.02;100924.19;5105519;28;20118;-28
2022/10/10 03:15:45;;;;;;;21.13;9.65;;;;;;;10.69;77.72;100890.09;5089065;28;20122;-28
2022/10/10 03:18:11;;;;;;;13.85;9.68;;;;;;;10.90;78.39;100908.63;5089602;28;20032;-28
2022/10/10 03:20:36;;;;;;;13.38;9.90;;;;;;;10.93;79.28;100915.38;5107495;28;20036;-31
2022/10/10 03:23:01;;;;;;;12.20;9.80;;;;;;;10.63;78.96;100927.19;5107558;28;20028;-27
2022/10/10 03:25:27;;;;;;;13.70;9.15;;;;;;;10.71;77.91;100928.06;5089288;28;20482;-32
2022/10/10 03:27:52;;;;;;;11.98;10.00;;;;;;;10.86;77.64;100923.38;5107442;28;20023;-28
2022/10/10 03:30:18;;;;;;;13.10;9.68;;;;;;;10.89;77.95;100928.34;5107370;28;20430;-27
2022/10/10 03:32:43;;;;;;;12.40;9.60;;;;;;;10.92;79.56;100929.78;5107422;28;20164;-28
2022/10/10 03:35:08;;;;;;;12.65;8.82;;;;;;;10.92;78.86;100937.78;5107276;28;20086;-28
2022/10/10 03:37:34;;;;;;;13.13;9.90;;;;;;;10.87;78.24;100935.72;5088505;28;20047;-28
2022/10/10 03:39:59;;;;;;;13.93;9.32;;;;;;;10.99;78.64;100933.28;5107205;28;20080;-27
2022/10/10 03:42:25;;;;;;;13.00;9.70;;;;;;;11.03;78.63;100929.19;5107125;28;20035;-28
2022/10/10 03:44:50;;;;;;;12.05;9.45;;;;;;;10.85;78.85;100922.56;5107550;28;20020;-28
2022/10/10 03:47:16;;;;;;;12.95;9.40;;;;;;;10.70;78.07;100913.88;5088559;28;20176;-29
2022/10/10 03:49:41;;;;;;;12.55;9.68;;;;;;;11.03;76.51;100923.84;5107176;28;20027;-30
2022/10/10 03:52:06;;;;;;;19.23;11.07;;;;;;;11.14;76.20;100931.28;5107196;28;20097;-29
2022/10/10 03:54:32;;;;;;;14.07;9.75;;;;;;;10.83;77.33;100934.47;5107276;28;20788;-26
2022/10/10 03:56:57;;;;;;;14.68;10.23;;;;;;;10.68;78.56;100941.78;5107124;28;20042;-30
2022/10/10 03:59:23;;;;;;;17.65;10.23;;;;;;;10.63;79.12;100947.72;5107125;28;20161;-28
2022/10/10 04:01:48;;;;;;;14.43;10.35;;;;;;;10.69;78.30;100954.94;5106691;28;20464;-30
2022/10/10 04:04:14;;;;;;;13.30;9.80;;;;;;;10.96;77.17;100955.84;5107263;28;20027;-28
2022/10/10 04:06:39;;;;;;;14.10;10.35;;;;;;;10.98;76.82;100950.31;5105929;28;20027;-29
2022/10/10 04:09:05;;;;;;;15.05;10.50;;;;;;;11.11;76.07;100925.50;5107503;28;20024;-29
2022/10/10 04:11:30;;;;;;;16.35;10.05;;;;;;;11.24;75.26;100953.06;5088488;28;20053;-31
2022/10/10 04:13:56;;;;;;;23.63;11.50;;;;;;;11.26;74.99;100955.56;5106984;28;20102;-29
2022/10/10 04:16:21;;;;;;;30.25;12.63;;;;;;;11.25;75.25;100948.56;5088433;28;20054;-30
2022/10/10 04:18:47;;;;;;;20.58;11.35;;;;;;;11.00;76.58;100970.44;5107204;28;20047;-30
2022/10/10 04:21:12;;;;;;;23.15;11.95;;;;;;;10.97;76.71;100965.53;5106966;28;20084;-29
2022/10/10 04:23:40;;;;;;;18.17;11.48;;;;;;;10.80;78.24;100965.03;5106862;28;20757;-27
2022/10/10 04:26:05;;;;;;;18.27;10.77;;;;;;;10.57;79.85;100957.31;5109650;28;20099;-28
2022/10/10 04:28:31;;;;;;;18.98;11.63;;;;;;;11.00;78.21;100961.63;5110903;28;20414;-31
2022/10/10 04:30:56;;;;;;;17.60;12.07;;;;;;;10.68;79.32;100947.94;5110519;28;20114;-29
2022/10/10 04:33:21;;;;;;;16.60;10.93;;;;;;;10.54;80.31;100938.22;5092565;28;20116;-28
2022/10/10 04:35:48;;;;;;;20.50;11.85;;;;;;;11.00;78.48;100957.09;5110439;28;20507;-27
2022/10/10 04:38:15;;;;;;;17.70;10.95;;;;;;;11.27;77.50;100968.69;5108901;28;20055;-28
2022/10/10 04:40:40;;;;;;;17.20;11.52;;;;;;;11.15;78.66;100980.97;5110722;28;20028;-28
2022/10/10 04:43:05;;;;;;;22.38;11.70;;;;;;;11.03;78.67;100961.22;5092112;28;20085;-28
2022/10/10 04:45:31;;;;;;;22.65;12.20;;;;;;;11.26;77.55;100968.91;5110251;28;20071;-29
2022/10/10 04:47:56;;;;;;;20.58;12.77;;;;;;;11.50;77.00;100980.03;5110486;28;20149;-28
2022/10/10 04:50:22;;;;;;;23.20;11.95;;;;;;;11.21;78.74;100990.03;5110699;28;20578;-28
2022/10/10 04:52:48;;;;;;;23.83;11.95;;;;;;;11.66;76.83;100983.16;5091874;28;20046;-28
2022/10/10 04:55:14;;;;;;;21.90;11.35;;;;;;;11.32;77.77;100969.94;5092077;28;20031;-28
2022/10/10 04:57:39;;;;;;;21.08;12.65;;;;;;;11.36;78.29;100992.53;5110115;28;20034;-30
2022/10/10 05:00:06;;;;;;;22.55;13.35;;;;;;;11.50;77.42;100991.53;5109883;28;20023;-29
2022/10/10 05:02:31;;;;;;;20.27;13.73;;;;;;;11.33;77.34;100976.94;5110023;28;20028;-26
2022/10/10 05:04:57;;;;;;;23.20;13.65;;;;;;;11.54;76.97;101006.13;5110410;28;20395;-29
2022/10/10 05:07:22;;;;;;;18.00;12.82;;;;;;;11.59;76.74;100997.53;5110213;28;20115;-27
2022/10/10 05:09:48;;;;;;;30.70;13.43;;;;;;;11.49;76.18;101005.94;5109800;28;20934;-29
2022/10/10 05:12:13;;;;;;;18.42;12.20;;;;;;;11.45;76.42;101010.03;5091717;28;20458;-27
2022/10/10 05:14:39;;;;;;;17.48;12.23;;;;;;;11.44;76.30;100989.69;5109784;28;20031;-26
2022/10/10 05:17:04;;;;;;;18.58;11.25;;;;;;;11.52;76.74;101013.53;5108805;28;20035;-27
2022/10/10 05:19:30;;;;;;;18.20;12.07;;;;;;;11.67;76.45;101013.38;5109914;28;20388;-27
2022/10/10 05:21:55;;;;;;;18.20;11.10;;;;;;;11.84;75.69;101011.94;5110052;28;20020;-29
2022/10/10 05:24:21;;;;;;;19.17;11.25;;;;;;;12.06;74.95;101014.47;5091612;28;20632;-30
2022/10/10 05:26:47;;;;;;;19.67;10.82;;;;;;;12.30;74.20;101029.09;5109879;28;20028;-31
2022/10/10 05:29:12;;;;;;;19.13;12.60;;;;;;;12.15;75.16;101017.75;5109407;28;20027;-30
2022/10/10 05:31:38;;;;;;;20.33;12.50;;;;;;;12.36;74.06;101033.63;5109418;28;20035;-27
2022/10/10 05:34:03;;;;;;;15.02;11.40;;;;;;;12.43;73.57;101022.91;5091624;28;20592;-26
2022/10/10 05:36:28;;;;;;;21.25;12.07;;;;;;;12.37;74.73;101031.75;5108845;28;20035;-29
2022/10/10 05:38:54;;;;;;;17.90;12.02;;;;;;;12.77;73.45;101032.53;5091405;28;20023;-27
2022/10/10 05:41:19;;;;;;;18.02;11.23;;;;;;;12.65;73.40;101015.47;5109401;28;20031;-27
2022/10/10 05:43:45;;;;;;;14.88;11.57;;;;;;;12.68;73.18;101023.06;5108918;28;20035;-27
2022/10/10 05:46:10;;;;;;;19.58;12.13;;;;;;;12.84;73.81;101043.19;5090993;28;20543;-28
2022/10/10 05:48:36;;;;;;;16.85;11.68;;;;;;;12.85;73.66;101034.13;5108924;28;20027;-29
2022/10/10 05:51:01;;;;;;;19.10;12.57;;;;;;;12.87;74.73;101042.78;5109221;28;20738;-28
2022/10/10 05:53:29;;;;;;;24.33;15.07;;;;;;;12.86;74.24;101027.75;5108948;28;20020;-28
2022/10/10 05:55:55;;;;;;;16.05;11.60;;;;;;;13.07;73.97;101032.81;5090524;28;20479;-27
2022/10/10 05:58:20;;;;;;;17.70;12.77;;;;;;;13.03;73.37;101022.75;5090536;28;20096;-27
2022/10/10 06:00:46;;;;;;;16.95;11.77;;;;;;;13.35;72.70;101038.94;5109020;28;20031;-28
2022/10/10 06:03:15;;;;;;;17.80;11.68;;;;;;;13.60;72.17;101039.81;5109236;28;20487;-30
2022/10/10 06:05:43;;;;;;;18.35;12.38;;;;;;;13.55;72.11;101050.38;5108890;28;20354;-30
2022/10/10 06:08:09;;;;;;;17.42;13.23;;;;;;;13.26;73.07;101024.94;5090546;28;20030;-29
2022/10/10 06:10:36;;;;;;;19.42;13.50;;;;;;;13.68;72.20;101059.38;5108753;28;20032;-29
2022/10/10 06:13:02;;;;;;;23.02;16.02;;;;;;;13.78;72.45;101059.75;5108659;28;20419;-30
2022/10/10 06:15:27;;;;;;;45.33;35.60;;;;;;;13.73;72.47;101054.19;5108899;28;20027;-27
2022/10/10 06:17:52;;;;;;;53.65;42.65;;;;;;;13.81;72.06;101032.47;5103364;28;20042;-27
2022/10/10 06:20:18;;;;;;;58.10;46.47;;;;;;;14.41;69.99;101053.50;5096568;28;20106;-27
2022/10/10 06:22:43;;;;;;;62.13;49.90;;;;;;;14.43;69.09;101040.69;5088047;28;20024;-31
2022/10/10 06:25:09;;;;;;;85.05;67.50;;;;;;;14.21;69.60;101069.75;5102860;28;20106;-30
2022/10/10 06:27:34;;;;;;;83.57;69.10;;;;;;;14.42;69.35;101065.84;5107709;28;20670;-28
2022/10/10 06:30:00;;;;;;;50.20;39.88;;;;;;;14.53;69.13;101072.41;5107705;28;20059;-28
2022/10/10 06:32:25;;;;;;;45.95;35.90;;;;;;;14.59;68.87;101069.69;5088065;28;20016;-28
2022/10/10 06:34:50;;;;;;;38.78;31.45;;;;;;;14.83;67.78;101078.75;5102951;28;20118;-30
2022/10/10 06:37:16;;;;;;;38.00;29.42;;;;;;;15.08;67.00;101064.44;5106271;28;20044;-27
2022/10/10 06:39:41;;;;;;;32.75;25.27;;;;;;;15.36;66.02;101076.47;5107827;28;20027;-27
2022/10/10 06:42:08;;;;;;;23.52;19.10;;;;;;;15.51;66.42;101073.38;5099539;28;20052;-28
2022/10/10 06:44:33;;;;;;;17.98;12.43;;;;;;;15.54;66.33;101073.75;5086237;28;20036;-29
2022/10/10 06:46:59;;;;;;;19.02;13.82;;;;;;;15.82;66.91;101075.09;5087509;28;20036;-28
2022/10/10 06:49:24;;;;;;;19.27;15.10;;;;;;;15.73;66.23;101060.31;5086944;28;20030;-30
2022/10/10 06:51:50;;;;;;;20.77;13.77;;;;;;;15.85;67.24;101061.16;5087355;28;20036;-32
2022/10/10 06:54:15;;;;;;;16.75;12.80;;;;;;;16.16;65.88;101070.00;5086155;28;20016;-28
2022/10/10 06:56:41;;;;;;;16.83;11.70;;;;;;;16.30;65.38;101068.75;5087202;28;20034;-28
2022/10/10 06:59:06;;;;;;;14.60;11.73;;;;;;;16.62;64.22;101066.53;5086180;28;20031;-29
2022/10/10 07:01:32;;;;;;;19.15;11.98;;;;;;;16.71;63.91;101067.00;5087366;28;20028;-29
2022/10/10 07:03:57;;;;;;;17.63;11.88;;;;;;;17.06;63.82;101072.41;5087396;28;20047;-28
2022/10/10 07:06:23;;;;;;;27.90;23.63;;;;;;;17.24;62.22;101075.97;5087336;28;20121;-28
2022/10/10 07:08:48;;;;;;;14.40;11.00;;;;;;;17.06;62.82;101058.94;5087135;28;20023;-32
2022/10/10 07:11:14;;;;;;;15.93;11.40;;;;;;;17.41;62.29;101076.88;5086821;28;20039;-28
2022/10/10 07:13:39;;;;;;;17.50;11.20;;;;;;;17.71;60.92;101059.63;5093270;28;20034;-30
2022/10/10 07:16:05;;;;;;;16.17;10.45;;;;;;;17.83;60.40;101067.69;5107134;28;20438;-29
2022/10/10 07:18:31;;;;;;;16.38;10.82;;;;;;;17.62;61.06;101069.19;5106213;28;20016;-31
2022/10/10 07:20:58;;;;;;;17.77;10.90;;;;;;;17.80;61.32;101058.19;5105703;28;20028;-31
2022/10/10 07:23:24;;;;;;;20.27;13.60;;;;;;;17.80;61.42;101049.28;5107354;28;20046;-28
2022/10/10 07:25:49;;;;;;;18.60;10.98;;;;;;;17.87;60.66;101063.44;5106847;28;20483;-33
2022/10/10 07:28:15;;;;;;;13.65;10.63;;;;;;;18.10;60.36;101056.28;5107240;28;20034;-30
2022/10/10 07:30:43;;;;;;;15.63;9.82;;;;;;;18.17;60.15;101043.44;5107305;28;20534;-30
2022/10/10 07:33:09;;;;;;;15.32;10.35;;;;;;;18.33;58.54;101061.53;5107248;28;20028;-28
2022/10/10 07:35:35;;;;;;;16.25;10.35;;;;;;;18.71;58.03;101057.22;5107246;28;20039;-30
2022/10/10 07:38:00;;;;;;;16.23;9.75;;;;;;;18.78;57.75;101054.34;5107149;28;20109;-31
2022/10/10 07:40:26;;;;;;;12.70;9.20;;;;;;;18.93;57.21;101059.16;5107311;28;20050;-28
2022/10/10 07:42:51;;;;;;;15.82;9.27;;;;;;;19.05;57.80;101051.75;5107127;28;20024;-30
2022/10/10 07:45:17;;;;;;;13.77;10.35;;;;;;;19.05;56.35;101070.69;5107060;28;20084;-27
2022/10/10 07:47:43;;;;;;;12.00;9.57;;;;;;;19.22;56.26;101067.91;5088580;28;20486;-35
2022/10/10 07:50:10;;;;;;;15.00;9.93;;;;;;;19.36;56.32;101049.41;5107432;28;20115;-31
2022/10/10 07:52:36;;;;;;;15.15;9.50;;;;;;;19.45;55.82;101046.00;5107090;28;20062;-29
2022/10/10 07:55:03;;;;;;;13.05;9.70;;;;;;;19.52;55.83;101050.41;5106618;28;20031;-28
2022/10/10 07:57:33;;;;;;;15.32;9.32;;;;;;;19.83;54.34;101070.50;5106756;28;20032;-30
2022/10/10 07:59:59;;;;;;;13.43;9.85;;;;;;;19.93;53.90;101061.66;5109480;28;20062;-28
2022/10/10 08:02:25;;;;;;;15.95;9.98;;;;;;;20.10;53.82;101061.53;5092696;28;20051;-29
2022/10/10 08:04:50;;;;;;;18.77;11.20;;;;;;;20.09;53.86;101073.44;5110985;28;20028;-28
2022/10/10 08:07:15;;;;;;;16.35;10.80;;;;;;;20.27;53.64;101067.66;5110952;28;20663;-28
2022/10/10 08:09:41;;;;;;;20.15;10.27;;;;;;;20.32;53.26;101050.59;5110395;28;20106;-29
2022/10/10 08:12:06;;;;;;;12.57;9.05;;;;;;;20.31;52.29;101071.47;5111120;28;20081;-30
2022/10/10 08:14:31;;;;;;;13.95;10.05;;;;;;;20.66;51.95;101076.34;5111044;28;20034;-28
2022/10/10 08:16:57;;;;;;;15.38;9.73;;;;;;;20.51;51.98;101070.78;5110863;28;20517;-28
2022/10/10 08:19:22;;;;;;;14.93;10.57;;;;;;;20.37;51.94;101083.13;5111056;28;20031;-29
2022/10/10 08:21:48;;;;;;;15.23;9.88;;;;;;;19.98;53.13;101086.06;5110440;28;20028;-28
2022/10/10 08:24:14;;;;;;;16.23;10.25;;;;;;;20.24;53.39;101084.41;5110789;28;20042;-28
2022/10/10 08:26:39;;;;;;;16.95;10.20;;;;;;;20.28;52.04;101086.31;5110746;28;20026;-29
2022/10/10 08:29:05;;;;;;;17.85;9.43;;;;;;;20.32;52.55;101062.25;5110865;28;20400;-28
2022/10/10 08:31:30;;;;;;;22.00;9.35;;;;;;;20.46;51.59;101082.41;5110445;28;20406;-32
2022/10/10 08:33:55;;;;;;;14.45;9.40;;;;;;;20.66;51.41;101061.97;5104549;28;20031;-28
2022/10/10 08:36:22;;;;;;;15.88;9.45;;;;;;;20.79;51.58;101064.22;5110256;28;20028;-30
2022/10/10 08:38:51;;;;;;;12.38;8.98;;;;;;;20.89;50.33;101052.59;5098302;28;20032;-29
2022/10/10 08:41:19;;;;;;;14.73;9.27;;;;;;;20.44;51.10;101078.31;5090087;28;20135;-29
2022/10/10 08:43:53;;;;;;;13.63;8.73;;;;;;;20.59;51.24;101069.50;5090133;28;20629;-30
2022/10/10 08:46:32;;;;;;;15.13;8.98;;;;;;;20.93;50.42;101080.00;5094497;28;20024;-28
2022/10/10 08:49:10;;;;;;;11.73;8.05;;;;;;;21.31;49.87;101069.84;5089931;28;20042;-30
2022/10/10 08:51:39;;;;;;;16.55;9.60;;;;;;;21.11;49.43;101043.50;5089881;28;20039;-28
2022/10/10 08:54:07;;;;;;;14.07;8.40;;;;;;;21.18;49.70;101061.13;5090161;28;20089;-28
2022/10/10 08:56:34;;;;;;;16.45;9.30;;;;;;;21.35;49.67;101070.94;5089822;28;20062;-28
2022/10/10 08:59:06;;;;;;;14.48;8.63;;;;;;;21.38;48.75;101071.25;5089633;28;20464;-28
2022/10/10 09:01:37;;;;;;;13.57;8.20;;;;;;;21.51;48.26;101074.56;5089441;28;20158;-29
2022/10/10 09:04:05;;;;;;;12.77;8.32;;;;;;;21.27;48.88;101054.13;5071518;28;20089;-29
2022/10/10 09:06:42;;;;;;;;;;;;;;;21.34;49.28;101069.34;5090328;28;20028;-33
2022/10/10 09:09:26;;;;;;;14.75;9.00;;;;;;;21.43;48.90;101068.59;5089713;28;19941;-28
2022/10/10 09:11:55;;;;;;;12.88;8.27;;;;;;;21.50;47.77;101071.03;5070176;28;20399;-29
2022/10/10 09:14:46;;;;;;;12.98;8.68;;;;;;;21.74;48.13;101063.22;5071004;28;20032;-30
2022/10/10 09:17:26;;;;;;;15.07;8.65;;;;;;;22.18;47.90;101068.13;5091055;28;20050;-29
2022/10/10 09:20:10;;;;;;;16.58;9.80;;;;;;;22.08;46.35;101068.94;5109583;28;20027;-28
2022/10/10 09:22:48;;;;;;;19.48;14.23;;;;;;;22.28;45.51;101075.50;5109285;28;20441;-28
2022/10/10 09:25:25;;;;;;;15.23;9.65;;;;;;;22.21;45.84;101064.03;5091329;28;20054;-28
2022/10/10 09:28:10;;;;;;;16.90;10.23;;;;;;;22.19;45.03;101060.78;5109700;28;20843;-28
2022/10/10 09:30:43;;;;;;;14.85;8.80;;;;;;;22.68;45.60;101049.34;5109493;28;20032;-30
2022/10/10 09:33:33;;;;;;;11.85;8.10;;;;;;;23.17;45.08;101062.25;5109535;28;20407;-29
2022/10/10 09:36:04;;;;;;;16.70;8.98;;;;;;;23.03;44.76;101028.59;5106784;28;20039;-30
2022/10/10 09:38:38;;;;;;;17.33;12.48;;;;;;;22.57;45.28;101058.63;5097824;28;20036;-30
2022/10/10 09:41:19;;;;;;;16.05;8.68;;;;;;;22.97;45.34;101046.81;5088509;28;20024;-29
2022/10/10 09:43:45;;;;;;;13.02;8.18;;;;;;;23.13;44.24;101047.59;5076152;28;20027;-28
2022/10/10 09:46:10;;;;;;;10.45;7.95;;;;;;;22.49;44.83;101029.28;5109007;28;20085;-29
2022/10/10 09:48:41;;;;;;;13.70;8.75;;;;;;;22.84;45.40;101045.50;5109046;28;20124;-28
2022/10/10 09:51:17;;;;;;;15.52;8.38;;;;;;;22.72;44.95;101036.00;5109182;28;20023;-28
2022/10/10 09:53:44;;;;;;;13.57;8.10;;;;;;;22.82;44.63;101055.84;5108872;28;20035;-28
2022/10/10 09:56:23;;;;;;;12.57;8.90;;;;;;;22.80;44.00;101035.44;5108994;28;20028;-28
2022/10/10 09:58:51;;;;;;;10.40;7.65;;;;;;;23.47;44.24;101053.09;5090794;28;20020;-31
2022/10/10 10:01:20;;;;;;;12.65;8.20;;;;;;;23.23;43.64;101050.25;5090271;28;20169;-30
2022/10/10 10:04:04;;;;;;;11.95;8.68;;;;;;;23.07;43.73;101045.97;5090238;28;20387;-29
2022/10/10 10:06:30;;;;;;;12.45;8.00;;;;;;;23.45;43.92;101046.31;5108786;28;20024;-28
2022/10/10 10:09:05;;;;;;;12.27;7.85;;;;;;;23.51;42.26;101022.59;5108918;28;20043;-30
2022/10/10 10:11:35;;;;;;;10.93;8.10;;;;;;;23.62;41.47;101022.25;5089937;28;20055;-28
2022/10/10 10:14:01;;;;;;;16.10;7.85;;;;;;;23.66;43.48;101026.06;5090319;28;20418;-28
2022/10/10 10:16:37;;;;;;;11.23;7.68;;;;;;;23.82;42.29;101042.28;5108496;28;20035;-28
2022/10/10 10:19:03;;;;;;;15.18;8.15;;;;;;;24.01;41.81;101020.63;5108477;28;20130;-30
2022/10/10 10:21:30;;;;;;;15.20;8.48;;;;;;;24.09;41.63;101027.34;5108291;28;20023;-29
2022/10/10 10:24:01;;;;;;;10.43;6.95;;;;;;;23.82;41.33;101029.50;5108646;28;20487;-29
2022/10/10 10:26:44;;;;;;;11.85;7.70;;;;;;;23.96;41.66;101024.19;5106939;28;20662;-28
2022/10/10 10:29:27;;;;;;;10.82;7.43;;;;;;;24.35;40.30;101025.22;5108260;28;20472;-30
2022/10/10 10:32:03;;;;;;;9.43;6.70;;;;;;;24.44;39.55;100997.03;5108199;28;20031;-28
2022/10/10 10:34:50;;;;;;;17.55;7.20;;;;;;;24.96;38.92;100996.47;5089862;28;20035;-30
2022/10/10 10:37:31;;;;;;;9.93;6.90;;;;;;;24.97;38.67;100993.44;5108177;28;20054;-31
2022/10/10 10:40:43;;;;;;;11.50;6.82;;;;;;;24.93;38.36;101002.47;5089894;28;20032;-29
2022/10/10 10:43:27;;;;;;;10.05;6.82;;;;;;;24.81;39.27;100987.38;5102967;28;20043;-28
2022/10/10 10:46:26;;;;;;;12.73;7.95;;;;;;;25.16;38.28;100998.91;5107780;28;20032;-29
2022/10/10 10:48:59;;;;;;;9.52;6.57;;;;;;;25.30;37.77;100990.03;5108173;28;20027;-29
2022/10/10 10:51:46;;;;;;;11.73;6.55;;;;;;;25.31;38.15;100997.09;5089341;28;20043;-30
2022/10/10 10:54:30;;;;;;;8.60;6.40;;;;;;;25.25;38.03;100989.00;5107785;28;20096;-28
2022/10/10 10:57:17;;;;;;;12.18;6.82;;;;;;;25.55;36.45;100978.69;5089395;28;20407;-29
2022/10/10 11:00:04;;;;;;;14.88;7.18;;;;;;;24.99;38.33;100984.97;5107706;28;20031;-28
2022/10/10 11:02:29;;;;;;;12.15;8.30;;;;;;;25.36;37.79;100970.53;5089087;28;20550;-29
2022/10/10 11:05:26;;;;;;;9.52;6.78;;;;;;;25.36;37.96;100956.09;5107775;28;20673;-28
2022/10/10 11:07:58;;;;;;;10.32;6.40;;;;;;;25.26;37.77;100963.31;5107240;28;20491;-28
2022/10/10 11:10:36;;;;;;;10.05;6.70;;;;;;;24.49;38.04;100962.63;5107667;28;20119;-29
2022/10/10 11:13:07;;;;;;;10.27;6.38;;;;;;;24.80;37.63;100965.81;5107481;28;20542;-31
2022/10/10 11:15:40;;;;;;;10.88;7.18;;;;;;;24.37;38.94;100960.31;5107714;28;20041;-29
2022/10/10 11:18:21;;;;;;;11.82;6.70;;;;;;;25.08;37.46;100961.34;5107699;28;20045;-31
2022/10/10 11:20:56;;;;;;;9.70;6.47;;;;;;;25.30;37.76;100935.44;5107424;28;20092;-29
2022/10/10 11:23:27;;;;;;;13.63;7.88;;;;;;;25.30;38.41;100943.63;5107096;28;20028;-30
2022/10/10 11:26:06;;;;;;;9.95;6.65;;;;;;;25.14;37.51;100927.44;5105839;28;20031;-34